Time;durP1;ratioP1;P1;durP2;ratioP2;P2;SDS_P1;SDS_P2;PMS_P1;PMS_P2;Temp;Humidity;BMP_temperature;BMP_pressure;BME280_temperature;BME280_humidity;BME280_pressure;Samples;Min_cycle;Max_cycle;Signal;HPM_P1;HPM_P2
2022/09/25 00:01:03;;;;;;;1999.90;999.90;;;;;;;-144.65;100.00;64500.88;5013036;28;20393;-76
2022/09/25 00:03:30;;;;;;;1999.90;999.90;;;;;;;-144.65;100.00;64500.88;5012391;28;20573;-76
2022/09/25 00:06:04;;;;;;;1999.90;999.90;;;;;;;-144.65;100.00;64500.88;5013200;28;20112;-76
2022/09/25 00:08:30;;;;;;;1999.90;999.90;;;;;;;-144.65;100.00;64500.88;5012942;28;20036;-76
2022/09/25 00:10:55;;;;;;;1999.90;999.90;;;;;;;-144.65;100.00;64500.88;5012872;28;20026;-76
2022/09/25 00:13:21;;;;;;;1999.90;999.90;;;;;;;-144.65;100.00;64500.88;5012958;28;20084;-77
2022/09/25 00:15:49;;;;;;;1999.90;999.90;;;;;;;-144.65;100.00;64500.88;4994914;28;20163;-76
2022/09/25 00:19:48;;;;;;;1999.90;999.90;;;;;;;-144.65;100.00;64500.88;5011198;28;20091;-76
2022/09/25 00:21:02;;;;;;;1999.90;999.90;;;;;;;-144.65;100.00;64500.88;4992722;28;20042;-77
2022/09/25 00:23:27;;;;;;;1999.90;999.90;;;;;;;-144.65;100.00;64500.88;5006674;28;20048;-77
2022/09/25 00:25:53;;;;;;;1999.90;999.90;;;;;;;-144.65;100.00;64500.88;5013726;28;20768;-76
2022/09/25 00:28:18;;;;;;;1999.90;999.90;;;;;;;-144.65;100.00;64500.88;5012580;28;20065;-76
2022/09/25 00:30:43;;;;;;;1999.90;999.90;;;;;;;-144.65;100.00;64500.88;5012481;28;20040;-75
2022/09/25 00:33:08;;;;;;;1999.90;999.90;;;;;;;-144.65;100.00;64500.88;5012402;28;20061;-76
2022/09/25 00:35:34;;;;;;;1999.90;999.90;;;;;;;-144.65;100.00;64500.88;4994661;28;20056;-76
2022/09/25 00:37:59;;;;;;;1999.90;999.90;;;;;;;-144.65;100.00;64500.88;5012767;28;20381;-76
2022/09/25 00:40:24;;;;;;;1999.90;999.90;;;;;;;-144.65;100.00;64500.88;5012344;28;20026;-76
2022/09/25 00:42:50;;;;;;;1999.90;999.90;;;;;;;-144.65;100.00;64500.88;5012023;28;20034;-76
2022/09/25 00:45:18;;;;;;;1999.90;999.90;;;;;;;-144.65;100.00;64500.88;5011992;28;20026;-76
2022/09/25 00:47:53;;;;;;;1999.90;999.90;;;;;;;-144.65;100.00;64500.88;4994533;28;20115;-75
2022/09/25 00:50:41;;;;;;;1999.90;999.90;;;;;;;-144.65;100.00;64500.88;5012083;28;20046;-76
2022/09/25 00:53:22;;;;;;;1999.90;999.90;;;;;;;-144.65;100.00;64500.88;4999288;28;20090;-76
2022/09/25 00:55:48;;;;;;;1999.90;999.90;;;;;;;-144.65;100.00;64500.88;5012157;28;20033;-76
2022/09/25 00:58:17;;;;;;;1999.90;999.90;;;;;;;-144.65;100.00;64500.88;4994205;28;20062;-76
2022/09/25 01:00:43;;;;;;;1999.90;999.90;;;;;;;-144.65;100.00;64500.88;5012030;28;20029;-76
2022/09/25 01:03:08;;;;;;;1999.90;999.90;;;;;;;-144.65;100.00;64500.88;5011906;28;20030;-76
2022/09/25 01:05:39;;;;;;;1999.90;999.90;;;;;;;-144.65;100.00;64500.88;5012041;28;20126;-75
2022/09/25 01:08:09;;;;;;;1999.90;999.90;;;;;;;-144.65;100.00;64500.88;4995079;28;20046;-77
2022/09/25 01:10:35;;;;;;;1999.90;999.90;;;;;;;-144.65;100.00;64500.88;5012121;28;20026;-77
2022/09/25 01:13:01;;;;;;;1999.90;999.90;;;;;;;-144.65;100.00;64500.88;5011794;28;20061;-76
2022/09/25 01:16:01;;;;;;;1999.90;999.90;;;;;;;-144.65;100.00;64500.88;5012258;28;20470;-76
2022/09/25 01:18:27;;;;;;;1999.90;999.90;;;;;;;-144.65;100.00;64500.88;5012146;28;20505;-76
2022/09/25 01:21:01;;;;;;;1999.90;999.90;;;;;;;-144.65;100.00;64500.88;5011607;28;21080;-76
2022/09/25 01:24:02;;;;;;;1999.90;999.90;;;;;;;-144.65;100.00;64500.88;4994140;28;20092;-76
2022/09/25 01:26:45;;;;;;;1999.90;999.90;;;;;;;-144.65;100.00;64500.88;4975083;28;20084;-77
2022/09/25 01:29:43;;;;;;;1999.90;999.90;;;;;;;-144.65;100.00;64500.88;5017648;28;20061;-77
2022/09/25 01:32:32;;;;;;;1999.90;999.90;;;;;;;-144.65;100.00;64500.88;5016309;28;20486;-77
2022/09/25 01:35:36;;;;;;;1999.90;999.90;;;;;;;-144.65;100.00;64500.88;5012960;28;20026;-76
2022/09/25 01:38:09;;;;;;;1999.90;999.90;;;;;;;-144.65;100.00;64500.88;5012970;28;20124;-77
2022/09/25 01:40:43;;;;;;;1999.90;999.90;;;;;;;-144.65;100.00;64500.88;5011896;28;20108;-77
2022/09/25 01:43:21;;;;;;;1999.90;999.90;;;;;;;-144.65;100.00;64500.88;5011855;28;20030;-77
2022/09/25 01:46:26;;;;;;;1999.90;999.90;;;;;;;-144.65;100.00;64500.88;5012390;28;20030;-76
2022/09/25 01:48:56;;;;;;;1999.90;999.90;;;;;;;-144.65;100.00;64500.88;5010992;28;20088;-76
2022/09/25 01:51:34;;;;;;;1999.90;999.90;;;;;;;-144.65;100.00;64500.88;5012613;28;20091;-76
2022/09/25 01:54:28;;;;;;;1999.90;999.90;;;;;;;-144.65;100.00;64500.88;5012136;28;20026;-76
2022/09/25 01:57:19;;;;;;;1999.90;999.90;;;;;;;-144.65;100.00;64500.88;5002085;28;20050;-76
2022/09/25 01:59:52;;;;;;;1999.90;999.90;;;;;;;-144.65;100.00;64500.88;5012243;28;20026;-75
2022/09/25 02:02:23;;;;;;;1999.90;999.90;;;;;;;-144.65;100.00;64500.88;5012321;28;20030;-75
2022/09/25 02:04:56;;;;;;;1999.90;999.90;;;;;;;-144.65;100.00;64500.88;5012468;28;20030;-76
2022/09/25 02:07:28;;;;;;;1999.90;999.90;;;;;;;-144.65;100.00;64500.88;5013376;28;20490;-75
2022/09/25 02:10:01;;;;;;;1999.90;999.90;;;;;;;-144.65;100.00;64500.88;5013438;28;20061;-76
2022/09/25 02:12:46;;;;;;;1999.90;999.90;;;;;;;-144.65;100.00;64500.88;5015043;28;20124;-74
2022/09/25 02:15:20;;;;;;;1999.90;999.90;;;;;;;-144.65;100.00;64500.88;5008348;28;20038;-76
2022/09/25 02:20:41;;;;;;;1999.90;999.90;;;;;;;-144.65;100.00;64500.88;4958133;28;20077;-75
2022/09/25 02:23:23;;;;;;;1999.90;999.90;;;;;;;-144.65;100.00;64500.88;4996825;28;20037;-75
2022/09/25 02:26:13;;;;;;;1999.90;999.90;;;;;;;-144.65;100.00;64500.88;5004699;28;20049;-75
2022/09/25 02:28:39;;;;;;;1999.90;999.90;;;;;;;-144.65;100.00;64500.88;4998591;28;20761;-74
2022/09/25 02:31:08;;;;;;;1999.90;999.90;;;;;;;-144.65;100.00;64500.88;5016846;28;20030;-75
2022/09/25 02:33:34;;;;;;;1999.90;999.90;;;;;;;-144.65;100.00;64500.88;4996695;28;20021;-75
2022/09/25 02:36:02;;;;;;;1999.90;999.90;;;;;;;-144.65;100.00;64500.88;5013963;28;20037;-75
2022/09/25 02:38:28;;;;;;;1999.90;999.90;;;;;;;-144.65;100.00;64500.88;5014805;28;20029;-75
2022/09/25 02:41:35;;;;;;;1999.90;999.90;;;;;;;-144.65;100.00;64500.88;5015214;28;20030;-74
2022/09/25 02:44:15;;;;;;;1999.90;999.90;;;;;;;-144.65;100.00;64500.88;4994583;28;20047;-75
2022/09/25 02:47:13;;;;;;;1999.90;999.90;;;;;;;-144.65;100.00;64500.88;5014579;28;20044;-75
2022/09/25 02:50:07;;;;;;;1999.90;999.90;;;;;;;-144.65;100.00;64500.88;5014290;28;20034;-74
2022/09/25 02:52:46;;;;;;;1999.90;999.90;;;;;;;-144.65;100.00;64500.88;5001263;28;20050;-75
2022/09/25 02:55:21;;;;;;;1999.90;999.90;;;;;;;-144.65;100.00;64500.88;5014669;28;20030;-75
2022/09/25 02:57:52;;;;;;;1999.90;999.90;;;;;;;-144.65;100.00;64500.88;5015653;28;20120;-75
2022/09/25 03:00:21;;;;;;;1999.90;999.90;;;;;;;-144.65;100.00;64500.88;5014395;28;20026;-74
2022/09/25 03:02:49;;;;;;;1999.90;999.90;;;;;;;-144.65;100.00;64500.88;5014101;28;20104;-75
2022/09/25 03:05:15;;;;;;;1999.90;999.90;;;;;;;-144.65;100.00;64500.88;5013889;28;20073;-75
2022/09/25 03:10:26;;;;;;;1999.90;999.90;;;;;;;-144.65;100.00;64500.88;5014009;28;20041;-75
2022/09/25 03:12:52;;;;;;;1999.90;999.90;;;;;;;-144.65;100.00;64500.88;5013930;28;20057;-75
2022/09/25 03:15:18;;;;;;;1999.90;999.90;;;;;;;-144.65;100.00;64500.88;4996391;28;20474;-75
2022/09/25 03:17:45;;;;;;;1999.90;999.90;;;;;;;-144.65;100.00;64500.88;5014005;28;20034;-75
2022/09/25 03:20:10;;;;;;;1999.90;999.90;;;;;;;-144.65;100.00;64500.88;5014864;28;20057;-75
2022/09/25 03:22:36;;;;;;;1999.90;999.90;;;;;;;-144.65;100.00;64500.88;5015636;28;20457;-75
2022/09/25 03:25:03;;;;;;;1999.90;999.90;;;;;;;-144.65;100.00;64500.88;5022279;28;20479;-75
2022/09/25 03:27:28;;;;;;;1999.90;999.90;;;;;;;-144.65;100.00;64500.88;5013503;28;20044;-75
2022/09/25 03:29:54;;;;;;;1999.90;999.90;;;;;;;-144.65;100.00;64500.88;5013260;28;20425;-76
2022/09/25 03:32:20;;;;;;;1999.90;999.90;;;;;;;-144.65;100.00;64500.88;5013353;28;20084;-76
2022/09/25 03:34:45;;;;;;;1999.90;999.90;;;;;;;-144.65;100.00;64500.88;5013138;28;20033;-75
2022/09/25 03:37:11;;;;;;;1999.90;999.90;;;;;;;-144.65;100.00;64500.88;5013295;28;20117;-75
2022/09/25 03:39:36;;;;;;;1999.90;999.90;;;;;;;-144.65;100.00;64500.88;5013120;28;20026;-75
2022/09/25 03:42:02;;;;;;;1999.90;999.90;;;;;;;-144.65;100.00;64500.88;5012961;28;20157;-75
2022/09/25 03:44:28;;;;;;;1999.90;999.90;;;;;;;-144.65;100.00;64500.88;5012718;28;20115;-75
2022/09/25 03:46:53;;;;;;;1999.90;999.90;;;;;;;-144.65;100.00;64500.88;4995444;28;20030;-75
2022/09/25 03:49:18;;;;;;;1999.90;999.90;;;;;;;-144.65;100.00;64500.88;5020241;28;20034;-75
2022/09/25 03:51:44;;;;;;;1999.90;999.90;;;;;;;-144.65;100.00;64500.88;5017757;28;21037;-75
2022/09/25 03:54:09;;;;;;;1999.90;999.90;;;;;;;-144.65;100.00;64500.88;5012843;28;20491;-75
2022/09/25 03:56:34;;;;;;;1999.90;999.90;;;;;;;-144.65;100.00;64500.88;5013491;28;20034;-74
2022/09/25 03:59:00;;;;;;;1999.90;999.90;;;;;;;-144.65;100.00;64500.88;5012931;28;20072;-75
2022/09/25 04:01:26;;;;;;;1999.90;999.90;;;;;;;-144.65;100.00;64500.88;5012768;28;20061;-75
2022/09/25 04:03:52;;;;;;;1999.90;999.90;;;;;;;-144.65;100.00;64500.88;5011008;28;20041;-75
2022/09/25 04:06:23;;;;;;;1999.90;999.90;;;;;;;-144.65;100.00;64500.88;5012629;28;20118;-75
2022/09/25 04:08:49;;;;;;;1999.90;999.90;;;;;;;-144.65;100.00;64500.88;5012858;28;20026;-75
2022/09/25 04:11:16;;;;;;;1999.90;999.90;;;;;;;-144.65;100.00;64500.88;5012399;28;20029;-75
2022/09/25 04:13:43;;;;;;;1999.90;999.90;;;;;;;-144.65;100.00;64500.88;5028283;28;20053;-75
2022/09/25 04:16:09;;;;;;;1999.90;999.90;;;;;;;-144.65;100.00;64500.88;5032144;28;20048;-75
2022/09/25 04:18:35;;;;;;;1999.90;999.90;;;;;;;-144.65;100.00;64500.88;5032132;28;20481;-75
2022/09/25 04:21:07;;;;;;;1999.90;999.90;;;;;;;-144.65;100.00;64500.88;5032190;28;20105;-75
2022/09/25 04:23:32;;;;;;;1999.90;999.90;;;;;;;-144.65;100.00;64500.88;5031725;28;20061;-75
2022/09/25 04:25:58;;;;;;;1999.90;999.90;;;;;;;-144.65;100.00;64500.88;5032051;28;20094;-76
2022/09/25 04:28:23;;;;;;;1999.90;999.90;;;;;;;-144.65;100.00;64500.88;5031982;28;20040;-75
2022/09/25 04:30:49;;;;;;;1999.90;999.90;;;;;;;-144.65;100.00;64500.88;5031915;28;20029;-75
2022/09/25 04:36:00;;;;;;;1999.90;999.90;;;;;;;-144.65;100.00;64500.88;5031814;28;20040;-75
2022/09/25 04:38:26;;;;;;;1999.90;999.90;;;;;;;-144.65;100.00;64500.88;5031694;28;20033;-76
2022/09/25 04:40:52;;;;;;;1999.90;999.90;;;;;;;-144.65;100.00;64500.88;5031708;28;20026;-75
2022/09/25 04:43:17;;;;;;;1999.90;999.90;;;;;;;-144.65;100.00;64500.88;5031225;28;20060;-75
2022/09/25 04:45:42;;;;;;;1999.90;999.90;;;;;;;-144.65;100.00;64500.88;5031538;28;20060;-75
2022/09/25 04:48:08;;;;;;;1999.90;999.90;;;;;;;-144.65;100.00;64500.88;5031680;28;20092;-75
2022/09/25 04:50:34;;;;;;;1999.90;999.90;;;;;;;-144.65;100.00;64500.88;5031678;28;20033;-75
2022/09/25 04:53:00;;;;;;;1999.90;999.90;;;;;;;-144.65;100.00;64500.88;5031567;28;20030;-75
2022/09/25 04:55:26;;;;;;;1999.90;999.90;;;;;;;-144.65;100.00;64500.88;5031631;28;20020;-75
2022/09/25 04:57:56;;;;;;;1999.90;999.90;;;;;;;-144.65;100.00;64500.88;5031339;28;20037;-76
2022/09/25 05:00:23;;;;;;;1999.90;999.90;;;;;;;-144.65;100.00;64500.88;5031294;28;20026;-75
2022/09/25 05:02:48;;;;;;;1999.90;999.90;;;;;;;-144.65;100.00;64500.88;5031050;28;20026;-75
2022/09/25 05:05:15;;;;;;;1999.90;999.90;;;;;;;-144.65;100.00;64500.88;5031136;28;20394;-75
2022/09/25 05:07:50;;;;;;;1999.90;999.90;;;;;;;-144.65;100.00;64500.88;5014063;28;20061;-75
2022/09/25 05:10:15;;;;;;;1999.90;999.90;;;;;;;-144.65;100.00;64500.88;5006473;28;20018;-75
2022/09/25 05:12:41;;;;;;;1999.90;999.90;;;;;;;-144.65;100.00;64500.88;5009333;28;20053;-75
2022/09/25 05:15:08;;;;;;;1999.90;999.90;;;;;;;-144.65;100.00;64500.88;4974115;28;20105;-76
2022/09/25 05:17:33;;;;;;;1999.90;999.90;;;;;;;-144.65;100.00;64500.88;5019219;28;20030;-75
2022/09/25 05:19:58;;;;;;;1999.90;999.90;;;;;;;-144.65;100.00;64500.88;5022911;28;20380;-75
2022/09/25 05:22:24;;;;;;;1999.90;999.90;;;;;;;-144.65;100.00;64500.88;5019989;28;20041;-79
2022/09/25 05:24:51;;;;;;;1999.90;999.90;;;;;;;-144.65;100.00;64500.88;5025848;28;20025;-80
2022/09/25 05:27:16;;;;;;;1999.90;999.90;;;;;;;-144.65;100.00;64500.88;5027705;28;20030;-79
2022/09/25 05:29:42;;;;;;;1999.90;999.90;;;;;;;-144.65;100.00;64500.88;5024326;28;20029;-79
2022/09/25 05:32:07;;;;;;;1999.90;999.90;;;;;;;-144.65;100.00;64500.88;5029566;28;20025;-79
2022/09/25 05:34:33;;;;;;;1999.90;999.90;;;;;;;-144.65;100.00;64500.88;5032253;28;20030;-79
2022/09/25 05:36:59;;;;;;;1999.90;999.90;;;;;;;-144.65;100.00;64500.88;5031918;28;20024;-78
2022/09/25 05:39:24;;;;;;;1999.90;999.90;;;;;;;-144.65;100.00;64500.88;5024946;28;20030;-78
2022/09/25 05:41:49;;;;;;;1999.90;999.90;;;;;;;-144.65;100.00;64500.88;5029969;28;20554;-80
2022/09/25 05:44:16;;;;;;;1999.90;999.90;;;;;;;-144.65;100.00;64500.88;5007488;28;20587;-79
2022/09/25 05:46:41;;;;;;;1999.90;999.90;;;;;;;-144.65;100.00;64500.88;5030050;28;20105;-79
2022/09/25 05:49:06;;;;;;;1999.90;999.90;;;;;;;-144.65;100.00;64500.88;5022197;28;20061;-78
2022/09/25 05:51:32;;;;;;;1999.90;999.90;;;;;;;-144.65;100.00;64500.88;5022508;28;20014;-78
2022/09/25 05:53:59;;;;;;;1999.90;999.90;;;;;;;-144.65;100.00;64500.88;5025569;28;20439;-78
2022/09/25 05:56:26;;;;;;;1999.90;999.90;;;;;;;-144.65;100.00;64500.88;5031911;28;20696;-80
2022/09/25 05:58:57;;;;;;;1999.90;999.90;;;;;;;-144.65;100.00;64500.88;5028222;28;20045;-79
2022/09/25 06:01:23;;;;;;;1999.90;999.90;;;;;;;-144.65;100.00;64500.88;5031346;28;20025;-79
2022/09/25 06:03:48;;;;;;;1999.90;999.90;;;;;;;-144.65;100.00;64500.88;5038871;28;20008;-76
2022/09/25 06:06:13;;;;;;;1999.90;999.90;;;;;;;-144.65;100.00;64500.88;5028859;28;20033;-78
2022/09/25 06:08:38;;;;;;;1999.90;999.90;;;;;;;-144.65;100.00;64500.88;5023771;28;20018;-78
2022/09/25 06:11:05;;;;;;;1999.90;999.90;;;;;;;-144.65;100.00;64500.88;5024208;28;20029;-79
2022/09/25 06:13:31;;;;;;;1999.90;999.90;;;;;;;-144.65;100.00;64500.88;5030807;28;20053;-79
2022/09/25 06:15:57;;;;;;;1999.90;999.90;;;;;;;-144.65;100.00;64500.88;5040086;28;20021;-79
2022/09/25 06:18:25;;;;;;;1999.90;999.90;;;;;;;-144.65;100.00;64500.88;5036367;28;20033;-78
2022/09/25 06:20:57;;;;;;;1999.90;999.90;;;;;;;-144.65;100.00;64500.88;5030305;28;20021;-80
2022/09/25 06:23:22;;;;;;;1999.90;999.90;;;;;;;-144.65;100.00;64500.88;5043023;28;20032;-77
2022/09/25 06:25:48;;;;;;;1999.90;999.90;;;;;;;-144.65;100.00;64500.88;5043064;28;20022;-80
2022/09/25 06:28:15;;;;;;;1999.90;999.90;;;;;;;-144.65;100.00;64500.88;5029594;28;20038;-80
2022/09/25 06:30:41;;;;;;;1999.90;999.90;;;;;;;-144.65;100.00;64500.88;5030311;28;20109;-79
2022/09/25 06:33:12;;;;;;;1999.90;999.90;;;;;;;-144.65;100.00;64500.88;5045722;28;20021;-80
2022/09/25 06:35:46;;;;;;;1999.90;999.90;;;;;;;-144.65;100.00;64500.88;5030708;28;20053;-81
2022/09/25 06:38:12;;;;;;;1999.90;999.90;;;;;;;-144.65;100.00;64500.88;5028717;28;20065;-73
2022/09/25 06:40:39;;;;;;;1999.90;999.90;;;;;;;-144.65;100.00;64500.88;5008871;28;20030;-73
2022/09/25 06:43:06;;;;;;;1999.90;999.90;;;;;;;-144.65;100.00;64500.88;5013347;28;20393;-73
2022/09/25 06:45:33;;;;;;;1999.90;999.90;;;;;;;-144.65;100.00;64500.88;5017698;28;20018;-73
2022/09/25 06:48:03;;;;;;;1999.90;999.90;;;;;;;-144.65;100.00;64500.88;5020162;28;20033;-78
2022/09/25 06:50:36;;;;;;;1999.90;999.90;;;;;;;-144.65;100.00;64500.88;5018086;28;20118;-79
2022/09/25 06:53:01;;;;;;;1999.90;999.90;;;;;;;-144.65;100.00;64500.88;5022157;28;20112;-79
2022/09/25 06:55:31;;;;;;;1999.90;999.90;;;;;;;-144.65;100.00;64500.88;5021089;28;20054;-79
2022/09/25 06:57:59;;;;;;;1999.90;999.90;;;;;;;-144.65;100.00;64500.88;5020335;28;20030;-81
2022/09/25 07:00:25;;;;;;;1999.90;999.90;;;;;;;-144.65;100.00;64500.88;5024334;28;20022;-78
2022/09/25 07:05:34;;;;;;;1999.90;999.90;;;;;;;-144.65;100.00;64500.88;5020781;28;20037;-78
2022/09/25 07:08:00;;;;;;;1999.90;999.90;;;;;;;-144.65;100.00;64500.88;5016773;28;20026;-78
2022/09/25 07:10:26;;;;;;;1999.90;999.90;;;;;;;-144.65;100.00;64500.88;5019720;28;20030;-79
2022/09/25 07:12:51;;;;;;;1999.90;999.90;;;;;;;-144.65;100.00;64500.88;5031931;28;20068;-78
2022/09/25 07:15:17;;;;;;;1999.90;999.90;;;;;;;-144.65;100.00;64500.88;5042639;28;20029;-81
2022/09/25 07:17:43;;;;;;;1999.90;999.90;;;;;;;-144.65;100.00;64500.88;5046110;28;20037;-81
2022/09/25 07:20:14;;;;;;;1999.90;999.90;;;;;;;-144.65;100.00;64500.88;5041435;28;20030;-80
2022/09/25 07:22:40;;;;;;;1999.90;999.90;;;;;;;-144.65;100.00;64500.88;5037034;28;20122;-80
2022/09/25 07:25:07;;;;;;;1999.90;999.90;;;;;;;-144.65;100.00;64500.88;5052186;28;20020;-80
2022/09/25 07:27:32;;;;;;;1999.90;999.90;;;;;;;-144.65;100.00;64500.88;5056965;28;20016;-81
2022/09/25 07:29:57;;;;;;;1999.90;999.90;;;;;;;-144.65;100.00;64500.88;5058228;28;20033;-79
2022/09/25 07:32:23;;;;;;;1999.90;999.90;;;;;;;-144.65;100.00;64500.88;5046489;28;20022;-81
2022/09/25 07:34:49;;;;;;;1999.90;999.90;;;;;;;-144.65;100.00;64500.88;5030397;28;20053;-79
2022/09/25 07:37:15;;;;;;;1999.90;999.90;;;;;;;-144.65;100.00;64500.88;5036506;28;20012;-80
2022/09/25 07:39:41;;;;;;;1999.90;999.90;;;;;;;-144.65;100.00;64500.88;5038043;28;20030;-78
2022/09/25 07:42:07;;;;;;;1999.90;999.90;;;;;;;-144.65;100.00;64500.88;5032938;28;20017;-80
2022/09/25 07:44:32;;;;;;;1999.90;999.90;;;;;;;-144.65;100.00;64500.88;5027992;28;20040;-79
2022/09/25 07:47:01;;;;;;;1999.90;999.90;;;;;;;-144.65;100.00;64500.88;5005563;28;20037;-80
2022/09/25 07:49:27;;;;;;;1999.90;999.90;;;;;;;-144.65;100.00;64500.88;5036937;28;20022;-80
2022/09/25 07:51:53;;;;;;;1999.90;999.90;;;;;;;-144.65;100.00;64500.88;5027246;28;20010;-79
2022/09/25 07:54:18;;;;;;;1999.90;999.90;;;;;;;-144.65;100.00;64500.88;5036599;28;20033;-80
2022/09/25 07:56:43;;;;;;;1999.90;999.90;;;;;;;-144.65;100.00;64500.88;5043261;28;20020;-79
2022/09/25 07:59:09;;;;;;;1999.90;999.90;;;;;;;-144.65;100.00;64500.88;5034765;28;20117;-80
2022/09/25 08:01:34;;;;;;;1999.90;999.90;;;;;;;-144.65;100.00;64500.88;5020574;28;20030;-78
2022/09/25 08:04:00;;;;;;;1999.90;999.90;;;;;;;-144.65;100.00;64500.88;5013926;28;20026;-77
2022/09/25 08:06:25;;;;;;;1999.90;999.90;;;;;;;-144.65;100.00;64500.88;5011536;28;20127;-77
2022/09/25 08:08:50;;;;;;;1999.90;999.90;;;;;;;-144.65;100.00;64500.88;5012402;28;20497;-77
2022/09/25 08:11:17;;;;;;;1999.90;999.90;;;;;;;-144.65;100.00;64500.88;4994631;28;20052;-75
2022/09/25 08:13:43;;;;;;;1999.90;999.90;;;;;;;-144.65;100.00;64500.88;5010669;28;20064;-77
2022/09/25 08:16:19;;;;;;;1999.90;999.90;;;;;;;-144.65;100.00;64500.88;5011985;28;20108;-77
2022/09/25 08:18:46;;;;;;;1999.90;999.90;;;;;;;-144.65;100.00;64500.88;5011819;28;20030;-77
2022/09/25 08:21:16;;;;;;;1999.90;999.90;;;;;;;-144.65;100.00;64500.88;5012639;28;20022;-76
2022/09/25 08:23:43;;;;;;;1999.90;999.90;;;;;;;-144.65;100.00;64500.88;4996854;28;20113;-78
2022/09/25 08:26:08;;;;;;;1999.90;999.90;;;;;;;-144.65;100.00;64500.88;4996494;28;20022;-77
2022/09/25 08:28:35;;;;;;;1999.90;999.90;;;;;;;-144.65;100.00;64500.88;5013558;28;20022;-77
2022/09/25 08:31:02;;;;;;;1999.90;999.90;;;;;;;-144.65;100.00;64500.88;5012532;28;20152;-77
2022/09/25 08:33:28;;;;;;;1999.90;999.90;;;;;;;-144.65;100.00;64500.88;5015432;28;20025;-77
2022/09/25 08:36:02;;;;;;;1999.90;999.90;;;;;;;-144.65;100.00;64500.88;5010052;28;20036;-77
2022/09/25 08:38:28;;;;;;;1999.90;999.90;;;;;;;-144.65;100.00;64500.88;5013054;28;20477;-76
2022/09/25 08:41:11;;;;;;;1999.90;999.90;;;;;;;-144.65;100.00;64500.88;5012553;28;20040;-77
2022/09/25 08:43:56;;;;;;;1999.90;999.90;;;;;;;-144.65;100.00;64500.88;5013321;28;20511;-77
2022/09/25 08:49:48;;;;;;;1999.90;999.90;;;;;;;-144.65;100.00;64500.88;5012880;28;20073;-75
2022/09/25 08:52:18;;;;;;;1999.90;999.90;;;;;;;-144.65;100.00;64500.88;5020285;28;20021;-77
2022/09/25 08:54:43;;;;;;;1999.90;999.90;;;;;;;-144.65;100.00;64500.88;5018447;28;20100;-77
2022/09/25 08:57:33;;;;;;;1999.90;999.90;;;;;;;-144.65;100.00;64500.88;5025690;28;20069;-77
2022/09/25 09:00:08;;;;;;;1999.90;999.90;;;;;;;-144.65;100.00;64500.88;5033840;28;20029;-77
2022/09/25 09:02:44;;;;;;;1999.90;999.90;;;;;;;-144.65;100.00;64500.88;5027287;28;20030;-78
2022/09/25 09:05:28;;;;;;;1999.90;999.90;;;;;;;-144.65;100.00;64500.88;5010080;28;20026;-76
2022/09/25 09:07:59;;;;;;;1999.90;999.90;;;;;;;-144.65;100.00;64500.88;5014293;28;20036;-77
2022/09/25 09:10:31;;;;;;;1999.90;999.90;;;;;;;-144.65;100.00;64500.88;5010972;28;20025;-78
2022/09/25 09:13:07;;;;;;;1999.90;999.90;;;;;;;-144.65;100.00;64500.88;5015063;28;20050;-75
2022/09/25 09:15:43;;;;;;;1999.90;999.90;;;;;;;-144.65;100.00;64500.88;5012413;28;20033;-77
2022/09/25 09:18:35;;;;;;;1999.90;999.90;;;;;;;-144.65;100.00;64500.88;5012582;28;20034;-77
2022/09/25 09:21:09;;;;;;;1999.90;999.90;;;;;;;-144.65;100.00;64500.88;5013172;28;20550;-76
2022/09/25 09:23:53;;;;;;;1999.90;999.90;;;;;;;-144.65;100.00;64500.88;5010649;28;20037;-76
2022/09/25 09:26:43;;;;;;;1999.90;999.90;;;;;;;-144.65;100.00;64500.88;5010733;28;20364;-77
2022/09/25 09:29:46;;;;;;;1999.90;999.90;;;;;;;-144.65;100.00;64500.88;4992730;28;20073;-76
2022/09/25 09:32:30;;;;;;;1999.90;999.90;;;;;;;-144.65;100.00;64500.88;5022722;28;20053;-78
2022/09/25 09:35:05;;;;;;;1999.90;999.90;;;;;;;-144.65;100.00;64500.88;5011376;28;20075;-77
2022/09/25 09:37:48;;;;;;;1999.90;999.90;;;;;;;-144.65;100.00;64500.88;5013752;28;20121;-77
2022/09/25 09:40:40;;;;;;;1999.90;999.90;;;;;;;-144.65;100.00;64500.88;5012336;28;20026;-79
2022/09/25 09:43:28;;;;;;;1999.90;999.90;;;;;;;-144.65;100.00;64500.88;5011820;28;20965;-77
2022/09/25 09:46:12;;;;;;;1999.90;999.90;;;;;;;-144.65;100.00;64500.88;5009202;28;20022;-77
2022/09/25 09:49:02;;;;;;;1999.90;999.90;;;;;;;-144.65;100.00;64500.88;5009929;28;20046;-76
2022/09/25 09:51:54;;;;;;;1999.90;999.90;;;;;;;-144.65;100.00;64500.88;4991978;28;20050;-77
2022/09/25 09:54:35;;;;;;;1999.90;999.90;;;;;;;-144.65;100.00;64500.88;5009738;28;20137;-76
2022/09/25 09:57:07;;;;;;;1999.90;999.90;;;;;;;-144.65;100.00;64500.88;5009580;28;20025;-75
2022/09/25 09:59:44;;;;;;;1999.90;999.90;;;;;;;-144.65;100.00;64500.88;5008435;28;20474;-76
2022/09/25 10:02:27;;;;;;;1999.90;999.90;;;;;;;-144.65;100.00;64500.88;5010427;28;20033;-76
2022/09/25 10:04:54;;;;;;;1999.90;999.90;;;;;;;-144.65;100.00;64500.88;5009911;28;20029;-77
2022/09/25 10:07:22;;;;;;;1999.90;999.90;;;;;;;-144.65;100.00;64500.88;5011097;28;20029;-77
2022/09/25 10:09:53;;;;;;;1999.90;999.90;;;;;;;-144.65;100.00;64500.88;5010064;28;20022;-77
2022/09/25 10:12:32;;;;;;;1999.90;999.90;;;;;;;-144.65;100.00;64500.88;5012037;28;20050;-78
2022/09/25 10:15:02;;;;;;;1999.90;999.90;;;;;;;-144.65;100.00;64500.88;5013050;28;20026;-77
2022/09/25 10:17:29;;;;;;;1999.90;999.90;;;;;;;-144.65;100.00;64500.88;5012688;28;20503;-76
2022/09/25 10:20:14;;;;;;;1999.90;999.90;;;;;;;-144.65;100.00;64500.88;5012332;28;20115;-77
2022/09/25 10:22:43;;;;;;;1999.90;999.90;;;;;;;-144.65;100.00;64500.88;5016108;28;20033;-77
2022/09/25 10:25:08;;;;;;;1999.90;999.90;;;;;;;-144.65;100.00;64500.88;5024775;28;20018;-77
2022/09/25 10:27:40;;;;;;;1999.90;999.90;;;;;;;-144.65;100.00;64500.88;5010787;28;20053;-77
2022/09/25 10:30:08;;;;;;;1999.90;999.90;;;;;;;-144.65;100.00;64500.88;5020438;28;20029;-79
2022/09/25 10:32:59;;;;;;;1999.90;999.90;;;;;;;-144.65;100.00;64500.88;5017548;28;20026;-79
2022/09/25 10:35:37;;;;;;;1999.90;999.90;;;;;;;-144.65;100.00;64500.88;5018850;28;20049;-78
2022/09/25 10:38:04;;;;;;;1999.90;999.90;;;;;;;-144.65;100.00;64500.88;5018647;28;20022;-79
2022/09/25 10:40:35;;;;;;;1999.90;999.90;;;;;;;-144.65;100.00;64500.88;5019435;28;20030;-79
2022/09/25 10:43:19;;;;;;;1999.90;999.90;;;;;;;-144.65;100.00;64500.88;5014465;28;20036;-77
2022/09/25 10:45:47;;;;;;;1999.90;999.90;;;;;;;-144.65;100.00;64500.88;4998636;28;20058;-76
2022/09/25 10:51:16;;;;;;;1999.90;999.90;;;;;;;-144.65;100.00;64500.88;5015650;28;20083;-79
2022/09/25 10:53:43;;;;;;;1999.90;999.90;;;;;;;-144.65;100.00;64500.88;5015696;28;20026;-78
2022/09/25 10:56:16;;;;;;;1999.90;999.90;;;;;;;-144.65;100.00;64500.88;5021140;28;20093;-80
2022/09/25 10:58:55;;;;;;;1999.90;999.90;;;;;;;-144.65;100.00;64500.88;5020171;28;20034;-78
2022/09/25 11:01:34;;;;;;;1999.90;999.90;;;;;;;-144.65;100.00;64500.88;5018341;28;20025;-79
2022/09/25 11:04:00;;;;;;;1999.90;999.90;;;;;;;-144.65;100.00;64500.88;5031715;28;20026;-78
2022/09/25 11:06:33;;;;;;;1999.90;999.90;;;;;;;-144.65;100.00;64500.88;5026023;28;20060;-79